Septimus — ZGBE8 — position and weather

sailwx.info

Track history (hours):
 
Tides and Currents Weather Stations Pressure Air Temp Water Temp Dewpoint Dewpoint Depression Visibility Wind Speed Wind Dir Waves Ship Positions

Septimus

Last reported at 2017-Sep-14 15:38 UTC. Time now 2017-Sep-22 20:46 UTC.
Position N 32°42' W 117°10'.
Warning: this ship's position is 8 days out of date.

Length 50 m; draft 2.5 m.

Type: Pleasure craft. MMSI: 319824000.

Date/timePositionNaut miles runAvg speedWind from/ knotsBaromVisibWave heightAir tempDewpointWater temp
2017-Sep-14 15:38N 32°42' W 117°10'1 7.6
2017-Sep-14 15:30N 32°43' W 117°11'4 8.2
2017-Sep-14 15:01N 32°39' W 117°14'4 7.9
2017-Sep-14 14:31N 32°39' W 117°18'713.4
2017-Sep-14 14:01N 32°44' W 117°24'713.1
2017-Sep-14 13:31N 32°49' W 117°29'714.6
2017-Sep-14 13:01N 32°54' W 117°36'815.1
2017-Sep-14 12:30N 32°59' W 117°42'714.8
2017-Sep-14 12:01N 33°04' W 117°48'714.6
2017-Sep-14 11:31N 33°09' W 117°55'714.4
2017-Sep-14 11:01N 33°14' W 118°01'713.9
2017-Sep-14 10:30N 33°19' W 118°07'913.9
2017-Sep-14 09:50N 33°28' W 118°11'514.1
2017-Sep-14 09:29N 33°33' W 118°13'4514.4
2017-Sep-14 06:20N 33°55' W 119°00'515.7
2017-Sep-14 06:00N 33°58' W 119°06'714.2
2017-Sep-14 05:30N 34°01' W 119°13'1014.9
2017-Sep-14 04:51N 34°05' W 119°24'514.7
2017-Sep-14 04:30N 34°05' W 119°30'714.5
2017-Sep-14 04:00N 34°07' W 119°39'714.5
2017-Sep-14 03:30N 34°09' W 119°47'714.7
2017-Sep-14 03:00N 34°11' W 119°56'815.6
2017-Sep-14 02:28N 34°13' W 120°05'715.1
2017-Sep-14 02:00N 34°15' W 120°14'814.9
2017-Sep-14 01:30N 34°18' W 120°22'715.0
2017-Sep-14 01:00N 34°19' W 120°31'815.4
2017-Sep-14 00:30N 34°21' W 120°40'714.9
2017-Sep-14 00:00N 34°23' W 120°49'714.7
2017-Sep-13 23:30N 34°26' W 120°57'714.9
2017-Sep-13 23:00N 34°32' W 121°03'815.3
2017-Sep-13 22:30N 34°38' W 121°08'815.0
2017-Sep-13 22:00N 34°44' W 121°14'814.9
2017-Sep-13 21:28N 34°50' W 121°20'714.7
2017-Sep-13 21:00N 34°55' W 121°26'815.0
2017-Sep-13 20:30N 35°00' W 121°32'714.9
2017-Sep-13 20:00N 35°06' W 121°39'2714.6
2017-Sep-13 18:08N 35°26' W 122°01'210.0
2017-Sep-13 17:53N 35°27' W 122°04'1015.5
2017-Sep-13 17:16N 35°34' W 122°12'715.0
2017-Sep-13 16:49N 35°39' W 122°17'515.3
2017-Sep-13 16:29N 35°44' W 122°21'12014.9
2017-Sep-13 08:25N 37°28' W 123°34'6214.8
2017-Sep-13 04:14N 38°23' W 124°10'41913.9
2017-Sep-11 22:03N 45°19' W 125°16'114.6
2017-Sep-11 21:59N 45°20' W 125°16'19014.1
2017-Sep-11 08:33N 48°30' W 125°01'212.9
2017-Sep-11 08:24N 48°31' W 124°58'615.1
2017-Sep-11 08:00N 48°31' W 124°49'815.5
2017-Sep-11 07:31N 48°29' W 124°38'816.2
2017-Sep-11 07:00N 48°26' W 124°27'816.3
2017-Sep-11 06:30N 48°23' W 124°16'816.2
2017-Sep-11 06:00N 48°20' W 124°04'1116.1
2017-Sep-11 05:21N 48°17' W 123°49'515.9
2017-Sep-11 05:00N 48°16' W 123°41'715.1
2017-Sep-11 04:31N 48°15' W 123°30'714.6
2017-Sep-11 04:00N 48°14' W 123°19'815.1
2017-Sep-11 03:30N 48°13' W 123°07'815.1
2017-Sep-11 02:59N 48°12' W 122°56'2111.8
2017-Sep-11 01:11N 47°58' W 122°33'213.1
2017-Sep-11 01:00N 47°56' W 122°30'714.4
2017-Sep-11 00:30N 47°49' W 122°27'714.5
2017-Sep-11 00:01N 47°42' W 122°27'713.4
2017-Sep-10 23:30N 47°36' W 122°22'1 2.2
2017-Sep-10 22:58N 47°35' W 122°21'0 0.0
2017-Sep-10 22:28N 47°35' W 122°21'0 0.0
2017-Sep-10 21:58N 47°35' W 122°21'0 0.0
2017-Sep-10 21:31N 47°35' W 122°21'0 0.0
2017-Sep-10 21:01N 47°35' W 122°21'0 0.0
2017-Sep-10 20:31N 47°35' W 122°21'2 4.5
2017-Sep-10 20:00N 47°37' W 122°23'3 6.5
2017-Sep-10 19:30N 47°40' W 122°24'0 0.8
2017-Sep-10 19:00N 47°40' W 122°24'1 1.1
2017-Sep-10 18:30N 47°40' W 122°23'0 0.0
2017-Sep-10 17:59N 47°40' W 122°23'0 0.0
2017-Sep-10 17:29N 47°40' W 122°23'0 0.0
2017-Sep-10 16:59N 47°40' W 122°23'0 0.0
2017-Sep-10 16:29N 47°40' W 122°23'0 0.0
2017-Sep-10 16:00N 47°40' W 122°23'0 0.0
2017-Sep-10 15:29N 47°40' W 122°23'0 0.0
2017-Sep-10 14:59N 47°40' W 122°23'0 0.0
2017-Sep-10 13:59N 47°40' W 122°23'0 0.0
2017-Sep-10 13:30N 47°40' W 122°23'0 0.0
2017-Sep-10 12:59N 47°40' W 122°23'0 0.0
2017-Sep-10 12:30N 47°40' W 122°23'0 0.0
2017-Sep-10 11:59N 47°40' W 122°23'0 0.0
2017-Sep-10 11:29N 47°40' W 122°23'0 0.0
2017-Sep-10 11:00N 47°40' W 122°23'0 0.0
2017-Sep-10 10:30N 47°40' W 122°23'0 0.0
2017-Sep-10 09:59N 47°40' W 122°23'0 0.0
2017-Sep-10 09:29N 47°40' W 122°23'0 0.0
2017-Sep-10 08:59N 47°40' W 122°23'0 0.0
2017-Sep-10 08:29N 47°40' W 122°23'0 0.0
2017-Sep-10 08:00N 47°40' W 122°23'0 0.0
2017-Sep-10 07:29N 47°40' W 122°23'0 0.0
2017-Sep-10 06:59N 47°40' W 122°23'0 0.0
2017-Sep-10 06:30N 47°40' W 122°23'0 0.0
2017-Sep-10 06:00N 47°40' W 122°23'0 0.0
2017-Sep-10 05:29N 47°40' W 122°23'0 0.0
2017-Sep-10 04:59N 47°40' W 122°23'0 0.0
2017-Sep-10 04:29N 47°40' W 122°23'0 0.0
2017-Sep-10 03:59N 47°40' W 122°23'0 0.0
2017-Sep-10 03:30N 47°40' W 122°23'0 0.0
2017-Sep-10 03:00N 47°40' W 122°23'0 0.0
2017-Sep-10 02:30N 47°40' W 122°23'0 0.0
2017-Sep-10 02:00N 47°40' W 122°23'0 0.0
2017-Sep-10 01:30N 47°40' W 122°23'0 0.0
2017-Sep-10 01:00N 47°40' W 122°23'0 0.0
2017-Sep-10 00:30N 47°40' W 122°23'0 0.0
2017-Sep-10 00:00N 47°40' W 122°23'0 0.0
2017-Sep-09 23:30N 47°40' W 122°23'0 0.0
2017-Sep-09 23:00N 47°40' W 122°23'0 0.0
2017-Sep-09 22:30N 47°40' W 122°23'0 0.0
2017-Sep-09 21:59N 47°40' W 122°23'0 0.0
2017-Sep-09 21:29N 47°40' W 122°23'0 0.0
2017-Sep-09 21:00N 47°40' W 122°23'0 0.0
2017-Sep-09 20:30N 47°40' W 122°23'0 0.0
2017-Sep-09 20:00N 47°40' W 122°23'0 0.0
2017-Sep-09 19:30N 47°40' W 122°23'0 0.0
2017-Sep-09 19:00N 47°40' W 122°23'0 0.0
2017-Sep-09 18:30N 47°40' W 122°23'0 0.0
2017-Sep-09 18:00N 47°40' W 122°23'0 0.0
2017-Sep-09 17:30N 47°40' W 122°23'0 0.0
2017-Sep-09 16:59N 47°40' W 122°23'0 0.0
2017-Sep-09 16:29N 47°40' W 122°23'0 0.0
2017-Sep-09 16:00N 47°40' W 122°23'0 0.0
2017-Sep-09 15:30N 47°40' W 122°23'0 0.0
2017-Sep-09 14:59N 47°40' W 122°23'0 0.0
2017-Sep-09 14:30N 47°40' W 122°23'0 0.0
2017-Sep-09 14:00N 47°40' W 122°23'0 0.0
2017-Sep-09 13:30N 47°40' W 122°23'0 0.0
2017-Sep-09 12:59N 47°40' W 122°23'0 0.0
2017-Sep-09 12:29N 47°40' W 122°23'0 0.0
2017-Sep-09 11:59N 47°40' W 122°23'0 0.0
2017-Sep-09 11:29N 47°40' W 122°23'0 0.0
2017-Sep-09 10:59N 47°40' W 122°23'0 0.0
2017-Sep-09 10:29N 47°40' W 122°23'0 0.0
2017-Sep-09 10:00N 47°40' W 122°23'0 0.0
2017-Sep-09 09:30N 47°40' W 122°23'0 0.0
2017-Sep-09 08:59N 47°40' W 122°23'0 0.0
2017-Sep-09 08:29N 47°40' W 122°23'0 0.0
2017-Sep-09 07:59N 47°40' W 122°23'0 0.0
2017-Sep-09 07:29N 47°40' W 122°23'0 0.0
2017-Sep-09 06:59N 47°40' W 122°23'0 0.0
2017-Sep-09 06:29N 47°40' W 122°23'0 0.0
2017-Sep-09 05:59N 47°40' W 122°23'0 0.0
2017-Sep-09 05:29N 47°40' W 122°23'0 0.0
2017-Sep-09 04:59N 47°40' W 122°23'0 0.0
2017-Sep-09 04:29N 47°40' W 122°23'0 0.0
2017-Sep-09 03:59N 47°40' W 122°23'0 0.0
2017-Sep-09 03:29N 47°40' W 122°23'0 0.0
2017-Sep-09 02:59N 47°40' W 122°23'0 0.0
2017-Sep-09 02:29N 47°40' W 122°23'0 0.0
2017-Sep-09 01:59N 47°40' W 122°23'0 0.0
2017-Sep-09 01:29N 47°40' W 122°23'0 0.0
2017-Sep-09 00:59N 47°40' W 122°23'0 0.0
2017-Sep-09 00:29N 47°40' W 122°23'0 0.0
2017-Sep-08 23:59N 47°40' W 122°23'0 0.0
2017-Sep-08 23:29N 47°40' W 122°23'0 0.0
2017-Sep-08 22:59N 47°40' W 122°23'0 0.0
2017-Sep-08 22:29N 47°40' W 122°23'0 0.0
2017-Sep-08 21:59N 47°40' W 122°23'0 0.0
2017-Sep-08 21:29N 47°40' W 122°23'0 0.0
2017-Sep-08 20:59N 47°40' W 122°23'0 0.0
2017-Sep-08 20:29N 47°40' W 122°23'0 0.0
2017-Sep-08 19:59N 47°40' W 122°23'0 0.0
2017-Sep-08 19:29N 47°40' W 122°23'0 0.0
2017-Sep-08 18:59N 47°40' W 122°23'0 0.0
2017-Sep-08 18:29N 47°40' W 122°23'0 0.0
2017-Sep-08 17:59N 47°40' W 122°23'0 0.0
2017-Sep-08 17:29N 47°40' W 122°23'0 0.0
2017-Sep-08 16:59N 47°40' W 122°23'0 0.0
2017-Sep-08 16:29N 47°40' W 122°23'0 0.0
2017-Sep-08 15:59N 47°40' W 122°23'0 0.0
2017-Sep-08 15:29N 47°40' W 122°23'0 0.0
2017-Sep-08 14:59N 47°40' W 122°23'0 0.0
2017-Sep-08 14:23N 47°40' W 122°23'0 0.0
2017-Sep-08 13:59N 47°40' W 122°23'0 0.0
2017-Sep-08 13:29N 47°40' W 122°23'0 0.0
2017-Sep-08 12:56N 47°40' W 122°23'0 0.0
2017-Sep-08 12:29N 47°40' W 122°23'0 0.0
2017-Sep-08 11:59N 47°40' W 122°23'0 0.0
2017-Sep-08 11:29N 47°40' W 122°23'0 0.0
2017-Sep-08 10:59N 47°40' W 122°23'0 0.0
2017-Sep-08 10:29N 47°40' W 122°23'0 0.0
2017-Sep-08 09:59N 47°40' W 122°23'0 0.0
2017-Sep-08 09:29N 47°40' W 122°23'0 0.0
2017-Sep-08 08:59N 47°40' W 122°23'0 0.0
2017-Sep-08 08:29N 47°40' W 122°23'0 0.0
2017-Sep-08 07:59N 47°40' W 122°23'0 0.0
2017-Sep-08 07:29N 47°40' W 122°23'0 0.0
2017-Sep-08 06:59N 47°40' W 122°23'0 0.0
2017-Sep-08 06:29N 47°40' W 122°23'0 0.0
2017-Sep-08 05:59N 47°40' W 122°23'0 0.0
2017-Sep-08 05:29N 47°40' W 122°23'0 0.0
2017-Sep-08 04:59N 47°40' W 122°23'0 0.0
2017-Sep-08 04:29N 47°40' W 122°23'0 0.0
2017-Sep-08 03:59N 47°40' W 122°23'0 0.0
2017-Sep-08 03:29N 47°40' W 122°23'0 0.0
2017-Sep-08 02:59N 47°40' W 122°23'0 0.0
2017-Sep-08 02:29N 47°40' W 122°23'0 0.0
2017-Sep-08 01:59N 47°40' W 122°23'0 0.0
2017-Sep-08 01:29N 47°40' W 122°23'0 0.0
2017-Sep-08 01:00N 47°40' W 122°23'0 0.0
2017-Sep-08 00:29N 47°40' W 122°23'0 0.0
2017-Sep-07 23:59N 47°40' W 122°23'0 0.0
2017-Sep-07 23:29N 47°40' W 122°23'0 0.0
2017-Sep-07 22:59N 47°40' W 122°23'0 0.0
2017-Sep-07 22:29N 47°40' W 122°23'0 0.0
2017-Sep-07 21:59N 47°40' W 122°23'0 0.0
2017-Sep-07 21:29N 47°40' W 122°23'0 0.0
2017-Sep-07 20:59N 47°40' W 122°23'0 0.0
2017-Sep-07 20:29N 47°40' W 122°23'0 0.0
2017-Sep-07 19:59N 47°40' W 122°23'0 0.0
2017-Sep-07 19:29N 47°40' W 122°23'0 0.0
2017-Sep-07 18:59N 47°40' W 122°23'0 0.0
2017-Sep-07 18:29N 47°40' W 122°23'0 0.0
2017-Sep-07 17:59N 47°40' W 122°23'0 0.0
2017-Sep-07 17:29N 47°40' W 122°23'0 0.0
2017-Sep-07 16:59N 47°40' W 122°23'0 0.0
2017-Sep-07 16:29N 47°40' W 122°23'0 0.0
2017-Sep-07 15:59N 47°40' W 122°23'0 0.0
2017-Sep-07 15:29N 47°40' W 122°23'0 0.0
2017-Sep-07 14:59N 47°40' W 122°23'0 0.0
2017-Sep-07 14:29N 47°40' W 122°23'0 0.0
2017-Sep-07 13:59N 47°40' W 122°23'0 0.0
2017-Sep-07 13:29N 47°40' W 122°23'0 0.0
2017-Sep-07 12:59N 47°40' W 122°23'0 0.0
2017-Sep-07 12:29N 47°40' W 122°23'0 0.0
2017-Sep-07 11:59N 47°40' W 122°23'0 0.0
2017-Sep-07 11:29N 47°40' W 122°23'0 0.0
2017-Sep-07 10:59N 47°40' W 122°23'0 0.0
2017-Sep-07 10:29N 47°40' W 122°23'0 0.0
2017-Sep-07 09:59N 47°40' W 122°23'0 0.0
2017-Sep-07 09:29N 47°40' W 122°23'0 0.0
2017-Sep-07 08:59N 47°40' W 122°23'0 0.0
2017-Sep-07 08:29N 47°40' W 122°23'0 0.0
2017-Sep-07 07:59N 47°40' W 122°23'0 0.0
2017-Sep-07 07:29N 47°40' W 122°23'0 0.0
2017-Sep-07 06:59N 47°40' W 122°23'0 0.0
2017-Sep-07 06:29N 47°40' W 122°23'0 0.0
2017-Sep-07 05:59N 47°40' W 122°23'0 0.0
2017-Sep-07 05:29N 47°40' W 122°23'0 0.0
2017-Sep-07 04:59N 47°40' W 122°23'0 0.0
2017-Sep-07 04:29N 47°40' W 122°23'0 0.0
2017-Sep-07 03:59N 47°40' W 122°23'0 0.0
2017-Sep-07 03:29N 47°40' W 122°23'0 0.0
2017-Sep-07 02:59N 47°40' W 122°23'0 0.0
2017-Sep-07 02:29N 47°40' W 122°23'0 0.0
2017-Sep-07 01:59N 47°40' W 122°23'0 0.0
2017-Sep-07 01:30N 47°40' W 122°23'0 0.0
2017-Sep-07 00:59N 47°40' W 122°23'0 0.0
2017-Sep-07 00:29N 47°40' W 122°23'0 0.0
2017-Sep-06 23:59N 47°40' W 122°23'0 0.0
2017-Sep-06 23:30N 47°40' W 122°23'0 0.0
2017-Sep-06 22:59N 47°40' W 122°23'0 0.0
2017-Sep-06 22:29N 47°40' W 122°23'0 0.0
2017-Sep-06 21:59N 47°40' W 122°23'0 0.0
2017-Sep-06 21:29N 47°40' W 122°23'0 0.0
2017-Sep-06 20:59N 47°40' W 122°23'0 0.0
2017-Sep-06 20:29N 47°40' W 122°23'0 0.0
2017-Sep-06 19:59N 47°40' W 122°23'0 0.0
2017-Sep-06 19:29N 47°40' W 122°23'0 0.0
2017-Sep-06 18:59N 47°40' W 122°23'0 0.0
2017-Sep-06 18:29N 47°40' W 122°23'0 0.0
2017-Sep-06 17:59N 47°40' W 122°23'0 0.0
2017-Sep-06 17:29N 47°40' W 122°23'0 0.0
2017-Sep-06 16:59N 47°40' W 122°23'0 0.0
2017-Sep-06 16:29N 47°40' W 122°23'0 0.0
2017-Sep-06 15:59N 47°40' W 122°23'0 0.0
2017-Sep-06 15:29N 47°40' W 122°23'0 0.0
2017-Sep-06 14:59N 47°40' W 122°23'0 0.0
2017-Sep-06 14:29N 47°40' W 122°23'0 0.0
2017-Sep-06 13:59N 47°40' W 122°23'0 0.0
2017-Sep-06 13:29N 47°40' W 122°23'0 0.0
2017-Sep-06 12:59N 47°40' W 122°23'0 0.0
2017-Sep-06 12:29N 47°40' W 122°23'0 0.0
2017-Sep-06 11:59N 47°40' W 122°23'0 0.0
2017-Sep-06 11:29N 47°40' W 122°23'0 0.0
2017-Sep-06 10:59N 47°40' W 122°23'0 0.0
2017-Sep-06 10:29N 47°40' W 122°23'0 0.0
2017-Sep-06 09:59N 47°40' W 122°23'0 0.0
2017-Sep-06 09:29N 47°40' W 122°23'0 0.0
2017-Sep-06 08:59N 47°40' W 122°23'0 0.0
2017-Sep-06 08:29N 47°40' W 122°23'0 0.0
2017-Sep-06 07:59N 47°40' W 122°23'0 0.0
2017-Sep-06 07:29N 47°40' W 122°23'0 0.0
2017-Sep-06 06:59N 47°40' W 122°23'0 0.0
2017-Sep-06 06:29N 47°40' W 122°23'0 0.0
2017-Sep-06 05:59N 47°40' W 122°23'0 0.0
2017-Sep-06 05:29N 47°40' W 122°23'0 0.0
2017-Sep-06 04:59N 47°40' W 122°23'0 0.0
2017-Sep-06 04:29N 47°40' W 122°23'0 0.0
2017-Sep-06 03:59N 47°40' W 122°23'0 0.0
2017-Sep-06 03:29N 47°40' W 122°23'0 0.0
2017-Sep-06 02:59N 47°40' W 122°23'0 0.0
2017-Sep-06 02:29N 47°40' W 122°23'0 0.0
2017-Sep-06 01:59N 47°40' W 122°23'0 0.0
2017-Sep-06 01:29N 47°40' W 122°23'0 0.0
2017-Sep-06 00:59N 47°40' W 122°23'0 0.0
2017-Sep-06 00:29N 47°40' W 122°23'0 0.0
2017-Sep-05 23:59N 47°40' W 122°23'0 0.0
2017-Sep-05 23:29N 47°40' W 122°23'0 0.0
2017-Sep-05 22:59N 47°40' W 122°23'0 0.0
2017-Sep-05 22:29N 47°40' W 122°23'0 0.0
2017-Sep-05 21:59N 47°40' W 122°23'0 0.0
2017-Sep-05 21:30N 47°40' W 122°23'0 0.0
2017-Sep-05 20:59N 47°40' W 122°23'0 0.0
2017-Sep-05 20:29N 47°40' W 122°23'0 0.0
2017-Sep-05 19:59N 47°40' W 122°23'0 0.0
2017-Sep-05 19:29N 47°40' W 122°23'0 0.0
2017-Sep-05 18:59N 47°40' W 122°23'0 0.0
2017-Sep-05 18:29N 47°40' W 122°23'0 0.0
2017-Sep-05 17:59N 47°40' W 122°23'0 0.0
2017-Sep-05 17:29N 47°40' W 122°23'0 0.0
2017-Sep-05 16:59N 47°40' W 122°23'0 0.0
2017-Sep-05 16:30N 47°40' W 122°23'0 0.0
2017-Sep-05 15:59N 47°40' W 122°23'0 0.0
2017-Sep-05 15:29N 47°40' W 122°23'0 0.0
2017-Sep-05 14:59N 47°40' W 122°23'0 0.0
2017-Sep-05 14:29N 47°40' W 122°23'0 0.0
2017-Sep-05 13:59N 47°40' W 122°23'0 0.0
2017-Sep-05 13:29N 47°40' W 122°23'0 0.0
2017-Sep-05 12:59N 47°40' W 122°23'0 0.0
2017-Sep-05 12:29N 47°40' W 122°23'0 0.0
2017-Sep-05 11:59N 47°40' W 122°23'0 0.0
2017-Sep-05 11:29N 47°40' W 122°23'0 0.0
2017-Sep-05 10:59N 47°40' W 122°23'0 0.0
2017-Sep-05 10:29N 47°40' W 122°23'0 0.0
2017-Sep-05 09:59N 47°40' W 122°23'0 0.0
2017-Sep-05 09:29N 47°40' W 122°23'0 0.0
2017-Sep-05 08:59N 47°40' W 122°23'0 0.0
2017-Sep-05 08:29N 47°40' W 122°23'0 0.0
2017-Sep-05 07:59N 47°40' W 122°23'0 0.0
2017-Sep-05 07:29N 47°40' W 122°23'0 0.0
2017-Sep-05 06:59N 47°40' W 122°23'0 0.0
2017-Sep-05 06:29N 47°40' W 122°23'0 0.0
2017-Sep-05 05:59N 47°40' W 122°23'0 0.0
2017-Sep-05 05:29N 47°40' W 122°23'0 0.0
2017-Sep-05 04:59N 47°40' W 122°23'0 0.0
2017-Sep-05 04:29N 47°40' W 122°23'0 0.0
2017-Sep-05 03:59N 47°40' W 122°23'0 0.0
2017-Sep-05 03:29N 47°40' W 122°23'0 0.0
2017-Sep-05 03:00N 47°40' W 122°23'0 0.0
2017-Sep-05 02:29N 47°40' W 122°23'0 0.0
2017-Sep-05 01:59N 47°40' W 122°23'0 0.0
2017-Sep-05 01:29N 47°40' W 122°23'0 0.0
2017-Sep-05 00:59N 47°40' W 122°23'0 0.0
2017-Sep-05 00:29N 47°40' W 122°23'0 0.0
2017-Sep-04 23:59N 47°40' W 122°23'0 0.0
2017-Sep-04 23:29N 47°40' W 122°23'0 0.0
2017-Sep-04 22:59N 47°40' W 122°23'0 0.0
2017-Sep-04 22:29N 47°40' W 122°23'0 0.0
2017-Sep-04 21:59N 47°40' W 122°23'0 0.0
2017-Sep-04 21:29N 47°40' W 122°23'0 0.0
2017-Sep-04 20:59N 47°40' W 122°23'0 0.0
2017-Sep-04 20:29N 47°40' W 122°23'0 0.0
2017-Sep-04 19:59N 47°40' W 122°23'0 0.0
2017-Sep-04 19:29N 47°40' W 122°23'0 0.0
2017-Sep-04 18:59N 47°40' W 122°23'0 0.0
2017-Sep-04 18:29N 47°40' W 122°23'0 0.0
2017-Sep-04 17:59N 47°40' W 122°23'0 0.0
2017-Sep-04 17:29N 47°40' W 122°23'0 0.0
2017-Sep-04 16:59N 47°40' W 122°23'0 0.0
2017-Sep-04 16:29N 47°40' W 122°23'0 0.0
2017-Sep-04 15:59N 47°40' W 122°23'  
Track history (hours):
 
Tides and Currents Weather Stations Pressure Air Temp Water Temp Dewpoint Dewpoint Depression Visibility Wind Speed Wind Dir Waves Ship Positions

Septimus

Last reported at 2017-Sep-14 15:38 UTC. Time now 2017-Sep-22 20:46 UTC.
Position N 32°42' W 117°10'.
Warning: this ship's position is 8 days out of date.

Length 50 m; draft 2.5 m.

Type: Pleasure craft. MMSI: 319824000.

Date/timePositionNaut miles runAvg speedWind from/ knotsBaromVisibWave heightAir tempDewpointWater temp
2017-Sep-14 15:38N 32°42' W 117°10'1 7.6
2017-Sep-14 15:30N 32°43' W 117°11'4 8.2
2017-Sep-14 15:01N 32°39' W 117°14'4 7.9
2017-Sep-14 14:31N 32°39' W 117°18'713.4
2017-Sep-14 14:01N 32°44' W 117°24'713.1
2017-Sep-14 13:31N 32°49' W 117°29'714.6
2017-Sep-14 13:01N 32°54' W 117°36'815.1
2017-Sep-14 12:30N 32°59' W 117°42'714.8
2017-Sep-14 12:01N 33°04' W 117°48'714.6
2017-Sep-14 11:31N 33°09' W 117°55'714.4
2017-Sep-14 11:01N 33°14' W 118°01'713.9
2017-Sep-14 10:30N 33°19' W 118°07'913.9
2017-Sep-14 09:50N 33°28' W 118°11'514.1
2017-Sep-14 09:29N 33°33' W 118°13'4514.4
2017-Sep-14 06:20N 33°55' W 119°00'515.7
2017-Sep-14 06:00N 33°58' W 119°06'714.2
2017-Sep-14 05:30N 34°01' W 119°13'1014.9
2017-Sep-14 04:51N 34°05' W 119°24'514.7
2017-Sep-14 04:30N 34°05' W 119°30'714.5
2017-Sep-14 04:00N 34°07' W 119°39'714.5
2017-Sep-14 03:30N 34°09' W 119°47'714.7
2017-Sep-14 03:00N 34°11' W 119°56'815.6
2017-Sep-14 02:28N 34°13' W 120°05'715.1
2017-Sep-14 02:00N 34°15' W 120°14'814.9
2017-Sep-14 01:30N 34°18' W 120°22'715.0
2017-Sep-14 01:00N 34°19' W 120°31'815.4
2017-Sep-14 00:30N 34°21' W 120°40'714.9
2017-Sep-14 00:00N 34°23' W 120°49'714.7
2017-Sep-13 23:30N 34°26' W 120°57'714.9
2017-Sep-13 23:00N 34°32' W 121°03'815.3
2017-Sep-13 22:30N 34°38' W 121°08'815.0
2017-Sep-13 22:00N 34°44' W 121°14'814.9
2017-Sep-13 21:28N 34°50' W 121°20'714.7
2017-Sep-13 21:00N 34°55' W 121°26'815.0
2017-Sep-13 20:30N 35°00' W 121°32'714.9
2017-Sep-13 20:00N 35°06' W 121°39'2714.6
2017-Sep-13 18:08N 35°26' W 122°01'210.0
2017-Sep-13 17:53N 35°27' W 122°04'1015.5
2017-Sep-13 17:16N 35°34' W 122°12'715.0
2017-Sep-13 16:49N 35°39' W 122°17'515.3
2017-Sep-13 16:29N 35°44' W 122°21'12014.9
2017-Sep-13 08:25N 37°28' W 123°34'6214.8
2017-Sep-13 04:14N 38°23' W 124°10'41913.9
2017-Sep-11 22:03N 45°19' W 125°16'114.6
2017-Sep-11 21:59N 45°20' W 125°16'19014.1
2017-Sep-11 08:33N 48°30' W 125°01'212.9
2017-Sep-11 08:24N 48°31' W 124°58'615.1
2017-Sep-11 08:00N 48°31' W 124°49'815.5
2017-Sep-11 07:31N 48°29' W 124°38'816.2
2017-Sep-11 07:00N 48°26' W 124°27'816.3
2017-Sep-11 06:30N 48°23' W 124°16'816.2
2017-Sep-11 06:00N 48°20' W 124°04'1116.1
2017-Sep-11 05:21N 48°17' W 123°49'515.9
2017-Sep-11 05:00N 48°16' W 123°41'715.1
2017-Sep-11 04:31N 48°15' W 123°30'714.6
2017-Sep-11 04:00N 48°14' W 123°19'815.1
2017-Sep-11 03:30N 48°13' W 123°07'815.1
2017-Sep-11 02:59N 48°12' W 122°56'2111.8
2017-Sep-11 01:11N 47°58' W 122°33'213.1
2017-Sep-11 01:00N 47°56' W 122°30'714.4
2017-Sep-11 00:30N 47°49' W 122°27'714.5
2017-Sep-11 00:01N 47°42' W 122°27'713.4
2017-Sep-10 23:30N 47°36' W 122°22'1 2.2
2017-Sep-10 22:58N 47°35' W 122°21'0 0.0
2017-Sep-10 22:28N 47°35' W 122°21'0 0.0
2017-Sep-10 21:58N 47°35' W 122°21'0 0.0
2017-Sep-10 21:31N 47°35' W 122°21'0 0.0
2017-Sep-10 21:01N 47°35' W 122°21'0 0.0
2017-Sep-10 20:31N 47°35' W 122°21'2 4.5
2017-Sep-10 20:00N 47°37' W 122°23'3 6.5
2017-Sep-10 19:30N 47°40' W 122°24'0 0.8
2017-Sep-10 19:00N 47°40' W 122°24'1 1.1
2017-Sep-10 18:30N 47°40' W 122°23'0 0.0
2017-Sep-10 17:59N 47°40' W 122°23'0 0.0
2017-Sep-10 17:29N 47°40' W 122°23'0 0.0
2017-Sep-10 16:59N 47°40' W 122°23'0 0.0
2017-Sep-10 16:29N 47°40' W 122°23'0 0.0
2017-Sep-10 16:00N 47°40' W 122°23'0 0.0
2017-Sep-10 15:29N 47°40' W 122°23'0 0.0
2017-Sep-10 14:59N 47°40' W 122°23'0 0.0
2017-Sep-10 13:59N 47°40' W 122°23'0 0.0
2017-Sep-10 13:30N 47°40' W 122°23'0 0.0
2017-Sep-10 12:59N 47°40' W 122°23'0 0.0
2017-Sep-10 12:30N 47°40' W 122°23'0 0.0
2017-Sep-10 11:59N 47°40' W 122°23'0 0.0
2017-Sep-10 11:29N 47°40' W 122°23'0 0.0
2017-Sep-10 11:00N 47°40' W 122°23'0 0.0
2017-Sep-10 10:30N 47°40' W 122°23'0 0.0
2017-Sep-10 09:59N 47°40' W 122°23'0 0.0
2017-Sep-10 09:29N 47°40' W 122°23'0 0.0
2017-Sep-10 08:59N 47°40' W 122°23'0 0.0
2017-Sep-10 08:29N 47°40' W 122°23'0 0.0
2017-Sep-10 08:00N 47°40' W 122°23'0 0.0
2017-Sep-10 07:29N 47°40' W 122°23'0 0.0
2017-Sep-10 06:59N 47°40' W 122°23'0 0.0
2017-Sep-10 06:30N 47°40' W 122°23'0 0.0
2017-Sep-10 06:00N 47°40' W 122°23'0 0.0
2017-Sep-10 05:29N 47°40' W 122°23'0 0.0
2017-Sep-10 04:59N 47°40' W 122°23'0 0.0
2017-Sep-10 04:29N 47°40' W 122°23'0 0.0
2017-Sep-10 03:59N 47°40' W 122°23'0 0.0
2017-Sep-10 03:30N 47°40' W 122°23'0 0.0
2017-Sep-10 03:00N 47°40' W 122°23'0 0.0
2017-Sep-10 02:30N 47°40' W 122°23'0 0.0
2017-Sep-10 02:00N 47°40' W 122°23'0 0.0
2017-Sep-10 01:30N 47°40' W 122°23'0 0.0
2017-Sep-10 01:00N 47°40' W 122°23'0 0.0
2017-Sep-10 00:30N 47°40' W 122°23'0 0.0
2017-Sep-10 00:00N 47°40' W 122°23'0 0.0
2017-Sep-09 23:30N 47°40' W 122°23'0 0.0
2017-Sep-09 23:00N 47°40' W 122°23'0 0.0
2017-Sep-09 22:30N 47°40' W 122°23'0 0.0
2017-Sep-09 21:59N 47°40' W 122°23'0 0.0
2017-Sep-09 21:29N 47°40' W 122°23'0 0.0
2017-Sep-09 21:00N 47°40' W 122°23'0 0.0
2017-Sep-09 20:30N 47°40' W 122°23'0 0.0
2017-Sep-09 20:00N 47°40' W 122°23'0 0.0
2017-Sep-09 19:30N 47°40' W 122°23'0 0.0
2017-Sep-09 19:00N 47°40' W 122°23'0 0.0
2017-Sep-09 18:30N 47°40' W 122°23'0 0.0
2017-Sep-09 18:00N 47°40' W 122°23'0 0.0
2017-Sep-09 17:30N 47°40' W 122°23'0 0.0
2017-Sep-09 16:59N 47°40' W 122°23'0 0.0
2017-Sep-09 16:29N 47°40' W 122°23'0 0.0
2017-Sep-09 16:00N 47°40' W 122°23'0 0.0
2017-Sep-09 15:30N 47°40' W 122°23'0 0.0
2017-Sep-09 14:59N 47°40' W 122°23'0 0.0
2017-Sep-09 14:30N 47°40' W 122°23'0 0.0
2017-Sep-09 14:00N 47°40' W 122°23'0 0.0
2017-Sep-09 13:30N 47°40' W 122°23'0 0.0
2017-Sep-09 12:59N 47°40' W 122°23'0 0.0
2017-Sep-09 12:29N 47°40' W 122°23'0 0.0
2017-Sep-09 11:59N 47°40' W 122°23'0 0.0
2017-Sep-09 11:29N 47°40' W 122°23'0 0.0
2017-Sep-09 10:59N 47°40' W 122°23'0 0.0
2017-Sep-09 10:29N 47°40' W 122°23'0 0.0
2017-Sep-09 10:00N 47°40' W 122°23'0 0.0
2017-Sep-09 09:30N 47°40' W 122°23'0 0.0
2017-Sep-09 08:59N 47°40' W 122°23'0 0.0
2017-Sep-09 08:29N 47°40' W 122°23'0 0.0
2017-Sep-09 07:59N 47°40' W 122°23'0 0.0
2017-Sep-09 07:29N 47°40' W 122°23'0 0.0
2017-Sep-09 06:59N 47°40' W 122°23'0 0.0
2017-Sep-09 06:29N 47°40' W 122°23'0 0.0
2017-Sep-09 05:59N 47°40' W 122°23'0 0.0
2017-Sep-09 05:29N 47°40' W 122°23'0 0.0
2017-Sep-09 04:59N 47°40' W 122°23'0 0.0
2017-Sep-09 04:29N 47°40' W 122°23'0 0.0
2017-Sep-09 03:59N 47°40' W 122°23'0 0.0
2017-Sep-09 03:29N 47°40' W 122°23'0 0.0
2017-Sep-09 02:59N 47°40' W 122°23'0 0.0
2017-Sep-09 02:29N 47°40' W 122°23'0 0.0
2017-Sep-09 01:59N 47°40' W 122°23'0 0.0
2017-Sep-09 01:29N 47°40' W 122°23'0 0.0
2017-Sep-09 00:59N 47°40' W 122°23'0 0.0
2017-Sep-09 00:29N 47°40' W 122°23'0 0.0
2017-Sep-08 23:59N 47°40' W 122°23'0 0.0
2017-Sep-08 23:29N 47°40' W 122°23'0 0.0
2017-Sep-08 22:59N 47°40' W 122°23'0 0.0
2017-Sep-08 22:29N 47°40' W 122°23'0 0.0
2017-Sep-08 21:59N 47°40' W 122°23'0 0.0
2017-Sep-08 21:29N 47°40' W 122°23'0 0.0
2017-Sep-08 20:59N 47°40' W 122°23'0 0.0
2017-Sep-08 20:29N 47°40' W 122°23'0 0.0
2017-Sep-08 19:59N 47°40' W 122°23'0 0.0
2017-Sep-08 19:29N 47°40' W 122°23'0 0.0
2017-Sep-08 18:59N 47°40' W 122°23'0 0.0
2017-Sep-08 18:29N 47°40' W 122°23'0 0.0
2017-Sep-08 17:59N 47°40' W 122°23'0 0.0
2017-Sep-08 17:29N 47°40' W 122°23'0 0.0
2017-Sep-08 16:59N 47°40' W 122°23'0 0.0
2017-Sep-08 16:29N 47°40' W 122°23'0 0.0
2017-Sep-08 15:59N 47°40' W 122°23'0 0.0
2017-Sep-08 15:29N 47°40' W 122°23'0 0.0
2017-Sep-08 14:59N 47°40' W 122°23'0 0.0
2017-Sep-08 14:23N 47°40' W 122°23'0 0.0
2017-Sep-08 13:59N 47°40' W 122°23'0 0.0
2017-Sep-08 13:29N 47°40' W 122°23'0 0.0
2017-Sep-08 12:56N 47°40' W 122°23'0 0.0
2017-Sep-08 12:29N 47°40' W 122°23'0 0.0
2017-Sep-08 11:59N 47°40' W 122°23'0 0.0
2017-Sep-08 11:29N 47°40' W 122°23'0 0.0
2017-Sep-08 10:59N 47°40' W 122°23'0 0.0
2017-Sep-08 10:29N 47°40' W 122°23'0 0.0
2017-Sep-08 09:59N 47°40' W 122°23'0 0.0
2017-Sep-08 09:29N 47°40' W 122°23'0 0.0
2017-Sep-08 08:59N 47°40' W 122°23'0 0.0
2017-Sep-08 08:29N 47°40' W 122°23'0 0.0
2017-Sep-08 07:59N 47°40' W 122°23'0 0.0
2017-Sep-08 07:29N 47°40' W 122°23'0 0.0
2017-Sep-08 06:59N 47°40' W 122°23'0 0.0
2017-Sep-08 06:29N 47°40' W 122°23'0 0.0
2017-Sep-08 05:59N 47°40' W 122°23'0 0.0
2017-Sep-08 05:29N 47°40' W 122°23'0 0.0
2017-Sep-08 04:59N 47°40' W 122°23'0 0.0
2017-Sep-08 04:29N 47°40' W 122°23'0 0.0
2017-Sep-08 03:59N 47°40' W 122°23'0 0.0
2017-Sep-08 03:29N 47°40' W 122°23'0 0.0
2017-Sep-08 02:59N 47°40' W 122°23'0 0.0
2017-Sep-08 02:29N 47°40' W 122°23'0 0.0
2017-Sep-08 01:59N 47°40' W 122°23'0 0.0
2017-Sep-08 01:29N 47°40' W 122°23'0 0.0
2017-Sep-08 01:00N 47°40' W 122°23'0 0.0
2017-Sep-08 00:29N 47°40' W 122°23'0 0.0
2017-Sep-07 23:59N 47°40' W 122°23'0 0.0
2017-Sep-07 23:29N 47°40' W 122°23'0 0.0
2017-Sep-07 22:59N 47°40' W 122°23'0 0.0
2017-Sep-07 22:29N 47°40' W 122°23'0 0.0
2017-Sep-07 21:59N 47°40' W 122°23'0 0.0
2017-Sep-07 21:29N 47°40' W 122°23'0 0.0
2017-Sep-07 20:59N 47°40' W 122°23'0 0.0
2017-Sep-07 20:29N 47°40' W 122°23'0 0.0
2017-Sep-07 19:59N 47°40' W 122°23'0 0.0
2017-Sep-07 19:29N 47°40' W 122°23'0 0.0
2017-Sep-07 18:59N 47°40' W 122°23'0 0.0
2017-Sep-07 18:29N 47°40' W 122°23'0 0.0
2017-Sep-07 17:59N 47°40' W 122°23'0 0.0
2017-Sep-07 17:29N 47°40' W 122°23'0 0.0
2017-Sep-07 16:59N 47°40' W 122°23'0 0.0
2017-Sep-07 16:29N 47°40' W 122°23'0 0.0
2017-Sep-07 15:59N 47°40' W 122°23'0 0.0
2017-Sep-07 15:29N 47°40' W 122°23'0 0.0
2017-Sep-07 14:59N 47°40' W 122°23'0 0.0
2017-Sep-07 14:29N 47°40' W 122°23'0 0.0
2017-Sep-07 13:59N 47°40' W 122°23'0 0.0
2017-Sep-07 13:29N 47°40' W 122°23'0 0.0
2017-Sep-07 12:59N 47°40' W 122°23'0 0.0
2017-Sep-07 12:29N 47°40' W 122°23'0 0.0
2017-Sep-07 11:59N 47°40' W 122°23'0 0.0
2017-Sep-07 11:29N 47°40' W 122°23'0 0.0
2017-Sep-07 10:59N 47°40' W 122°23'0 0.0
2017-Sep-07 10:29N 47°40' W 122°23'0 0.0
2017-Sep-07 09:59N 47°40' W 122°23'0 0.0
2017-Sep-07 09:29N 47°40' W 122°23'0 0.0
2017-Sep-07 08:59N 47°40' W 122°23'0 0.0
2017-Sep-07 08:29N 47°40' W 122°23'0 0.0
2017-Sep-07 07:59N 47°40' W 122°23'0 0.0
2017-Sep-07 07:29N 47°40' W 122°23'0 0.0
2017-Sep-07 06:59N 47°40' W 122°23'0 0.0
2017-Sep-07 06:29N 47°40' W 122°23'0 0.0
2017-Sep-07 05:59N 47°40' W 122°23'0 0.0
2017-Sep-07 05:29N 47°40' W 122°23'0 0.0
2017-Sep-07 04:59N 47°40' W 122°23'0 0.0
2017-Sep-07 04:29N 47°40' W 122°23'0 0.0
2017-Sep-07 03:59N 47°40' W 122°23'0 0.0
2017-Sep-07 03:29N 47°40' W 122°23'0 0.0
2017-Sep-07 02:59N 47°40' W 122°23'0 0.0
2017-Sep-07 02:29N 47°40' W 122°23'0 0.0
2017-Sep-07 01:59N 47°40' W 122°23'0 0.0
2017-Sep-07 01:30N 47°40' W 122°23'0 0.0
2017-Sep-07 00:59N 47°40' W 122°23'0 0.0
2017-Sep-07 00:29N 47°40' W 122°23'0 0.0
2017-Sep-06 23:59N 47°40' W 122°23'0 0.0
2017-Sep-06 23:30N 47°40' W 122°23'0 0.0
2017-Sep-06 22:59N 47°40' W 122°23'0 0.0
2017-Sep-06 22:29N 47°40' W 122°23'0 0.0
2017-Sep-06 21:59N 47°40' W 122°23'0 0.0
2017-Sep-06 21:29N 47°40' W 122°23'0 0.0
2017-Sep-06 20:59N 47°40' W 122°23'0 0.0
2017-Sep-06 20:29N 47°40' W 122°23'0 0.0
2017-Sep-06 19:59N 47°40' W 122°23'0 0.0
2017-Sep-06 19:29N 47°40' W 122°23'0 0.0
2017-Sep-06 18:59N 47°40' W 122°23'0 0.0
2017-Sep-06 18:29N 47°40' W 122°23'0 0.0
2017-Sep-06 17:59N 47°40' W 122°23'0 0.0
2017-Sep-06 17:29N 47°40' W 122°23'0 0.0
2017-Sep-06 16:59N 47°40' W 122°23'0 0.0
2017-Sep-06 16:29N 47°40' W 122°23'0 0.0
2017-Sep-06 15:59N 47°40' W 122°23'0 0.0
2017-Sep-06 15:29N 47°40' W 122°23'0 0.0
2017-Sep-06 14:59N 47°40' W 122°23'0 0.0
2017-Sep-06 14:29N 47°40' W 122°23'0 0.0
2017-Sep-06 13:59N 47°40' W 122°23'0 0.0
2017-Sep-06 13:29N 47°40' W 122°23'0 0.0
2017-Sep-06 12:59N 47°40' W 122°23'0 0.0
2017-Sep-06 12:29N 47°40' W 122°23'0 0.0
2017-Sep-06 11:59N 47°40' W 122°23'0 0.0
2017-Sep-06 11:29N 47°40' W 122°23'0 0.0
2017-Sep-06 10:59N 47°40' W 122°23'0 0.0
2017-Sep-06 10:29N 47°40' W 122°23'0 0.0
2017-Sep-06 09:59N 47°40' W 122°23'0 0.0
2017-Sep-06 09:29N 47°40' W 122°23'0 0.0
2017-Sep-06 08:59N 47°40' W 122°23'0 0.0
2017-Sep-06 08:29N 47°40' W 122°23'0 0.0
2017-Sep-06 07:59N 47°40' W 122°23'0 0.0
2017-Sep-06 07:29N 47°40' W 122°23'0 0.0
2017-Sep-06 06:59N 47°40' W 122°23'0 0.0
2017-Sep-06 06:29N 47°40' W 122°23'0 0.0
2017-Sep-06 05:59N 47°40' W 122°23'0 0.0
2017-Sep-06 05:29N 47°40' W 122°23'0 0.0
2017-Sep-06 04:59N 47°40' W 122°23'0 0.0
2017-Sep-06 04:29N 47°40' W 122°23'0 0.0
2017-Sep-06 03:59N 47°40' W 122°23'0 0.0
2017-Sep-06 03:29N 47°40' W 122°23'0 0.0
2017-Sep-06 02:59N 47°40' W 122°23'0 0.0
2017-Sep-06 02:29N 47°40' W 122°23'0 0.0
2017-Sep-06 01:59N 47°40' W 122°23'0 0.0
2017-Sep-06 01:29N 47°40' W 122°23'0 0.0
2017-Sep-06 00:59N 47°40' W 122°23'0 0.0
2017-Sep-06 00:29N 47°40' W 122°23'0 0.0
2017-Sep-05 23:59N 47°40' W 122°23'0 0.0
2017-Sep-05 23:29N 47°40' W 122°23'0 0.0
2017-Sep-05 22:59N 47°40' W 122°23'0 0.0
2017-Sep-05 22:29N 47°40' W 122°23'0 0.0
2017-Sep-05 21:59N 47°40' W 122°23'0 0.0
2017-Sep-05 21:30N 47°40' W 122°23'0 0.0
2017-Sep-05 20:59N 47°40' W 122°23'0 0.0
2017-Sep-05 20:29N 47°40' W 122°23'0 0.0
2017-Sep-05 19:59N 47°40' W 122°23'0 0.0
2017-Sep-05 19:29N 47°40' W 122°23'0 0.0
2017-Sep-05 18:59N 47°40' W 122°23'0 0.0
2017-Sep-05 18:29N 47°40' W 122°23'0 0.0
2017-Sep-05 17:59N 47°40' W 122°23'0 0.0
2017-Sep-05 17:29N 47°40' W 122°23'0 0.0
2017-Sep-05 16:59N 47°40' W 122°23'0 0.0
2017-Sep-05 16:30N 47°40' W 122°23'0 0.0
2017-Sep-05 15:59N 47°40' W 122°23'0 0.0
2017-Sep-05 15:29N 47°40' W 122°23'0 0.0
2017-Sep-05 14:59N 47°40' W 122°23'0 0.0
2017-Sep-05 14:29N 47°40' W 122°23'0 0.0
2017-Sep-05 13:59N 47°40' W 122°23'0 0.0
2017-Sep-05 13:29N 47°40' W 122°23'0 0.0
2017-Sep-05 12:59N 47°40' W 122°23'0 0.0
2017-Sep-05 12:29N 47°40' W 122°23'0 0.0
2017-Sep-05 11:59N 47°40' W 122°23'0 0.0
2017-Sep-05 11:29N 47°40' W 122°23'0 0.0
2017-Sep-05 10:59N 47°40' W 122°23'0 0.0
2017-Sep-05 10:29N 47°40' W 122°23'0 0.0
2017-Sep-05 09:59N 47°40' W 122°23'0 0.0
2017-Sep-05 09:29N 47°40' W 122°23'0 0.0
2017-Sep-05 08:59N 47°40' W 122°23'0 0.0
2017-Sep-05 08:29N 47°40' W 122°23'0 0.0
2017-Sep-05 07:59N 47°40' W 122°23'0 0.0
2017-Sep-05 07:29N 47°40' W 122°23'0 0.0
2017-Sep-05 06:59N 47°40' W 122°23'0 0.0
2017-Sep-05 06:29N 47°40' W 122°23'0 0.0
2017-Sep-05 05:59N 47°40' W 122°23'0 0.0
2017-Sep-05 05:29N 47°40' W 122°23'0 0.0
2017-Sep-05 04:59N 47°40' W 122°23'0 0.0
2017-Sep-05 04:29N 47°40' W 122°23'0 0.0
2017-Sep-05 03:59N 47°40' W 122°23'0 0.0
2017-Sep-05 03:29N 47°40' W 122°23'0 0.0
2017-Sep-05 03:00N 47°40' W 122°23'0 0.0
2017-Sep-05 02:29N 47°40' W 122°23'0 0.0
2017-Sep-05 01:59N 47°40' W 122°23'0 0.0
2017-Sep-05 01:29N 47°40' W 122°23'0 0.0
2017-Sep-05 00:59N 47°40' W 122°23'0 0.0
2017-Sep-05 00:29N 47°40' W 122°23'0 0.0
2017-Sep-04 23:59N 47°40' W 122°23'0 0.0
2017-Sep-04 23:29N 47°40' W 122°23'0 0.0
2017-Sep-04 22:59N 47°40' W 122°23'0 0.0
2017-Sep-04 22:29N 47°40' W 122°23'0 0.0
2017-Sep-04 21:59N 47°40' W 122°23'0 0.0
2017-Sep-04 21:29N 47°40' W 122°23'0 0.0
2017-Sep-04 20:59N 47°40' W 122°23'0 0.0
2017-Sep-04 20:29N 47°40' W 122°23'0 0.0
2017-Sep-04 19:59N 47°40' W 122°23'0 0.0
2017-Sep-04 19:29N 47°40' W 122°23'0 0.0
2017-Sep-04 18:59N 47°40' W 122°23'0 0.0
2017-Sep-04 18:29N 47°40' W 122°23'0 0.0
2017-Sep-04 17:59N 47°40' W 122°23'0 0.0
2017-Sep-04 17:29N 47°40' W 122°23'0 0.0
2017-Sep-04 16:59N 47°40' W 122°23'0 0.0
2017-Sep-04 16:29N 47°40' W 122°23'0 0.0
2017-Sep-04 15:59N 47°40' W 122°23'  

Dump ship's entire track history